createdAt,value
2019-03-15T00:01:56.201Z,99752
2019-03-15T00:04:25.777Z,99752
2019-03-15T00:06:54.614Z,99755
2019-03-15T00:09:23.450Z,99776
2019-03-15T00:11:52.288Z,99770
2019-03-15T00:14:21.112Z,99775
2019-03-15T00:16:49.941Z,99785
2019-03-15T00:19:18.809Z,99785
2019-03-15T00:21:47.653Z,99794
2019-03-15T00:24:16.490Z,99790
2019-03-15T00:26:45.336Z,99798
2019-03-15T00:29:14.254Z,99799
2019-03-15T00:31:43.769Z,99804
2019-03-15T00:34:12.601Z,99800
2019-03-15T00:36:41.451Z,99791
2019-03-15T00:39:10.295Z,99803
2019-03-15T00:41:39.126Z,99799
2019-03-15T00:44:07.962Z,99802
2019-03-15T00:46:36.786Z,99805
2019-03-15T00:49:05.659Z,99812
2019-03-15T00:51:34.466Z,99803
2019-03-15T00:54:03.300Z,99804
2019-03-15T00:56:33.034Z,99803
2019-03-15T00:59:01.731Z,99804
2019-03-15T01:01:30.571Z,99805
2019-03-15T01:03:59.415Z,99808
2019-03-15T01:06:28.263Z,99806
2019-03-15T01:08:57.827Z,99811
2019-03-15T01:11:26.659Z,99799
2019-03-15T01:13:56.233Z,99804
2019-03-15T01:16:25.069Z,99826
2019-03-15T01:18:53.903Z,99831
2019-03-15T01:21:22.730Z,99829
2019-03-15T01:23:51.573Z,99839
2019-03-15T01:26:20.405Z,99836
2019-03-15T01:28:49.969Z,99842
2019-03-15T01:31:18.798Z,99832
2019-03-15T01:33:47.641Z,99835
2019-03-15T01:36:16.475Z,99829
2019-03-15T01:38:46.038Z,99827
2019-03-15T01:41:14.877Z,99826
2019-03-15T01:43:44.462Z,99823
2019-03-15T01:46:14.042Z,99829
2019-03-15T01:48:42.877Z,99833
2019-03-15T01:51:12.455Z,99844
2019-03-15T01:53:41.302Z,99830
2019-03-15T01:56:10.138Z,99832
2019-03-15T01:58:38.993Z,99826
2019-03-15T02:01:07.864Z,99836
2019-03-15T02:03:37.426Z,99838
2019-03-15T02:06:06.253Z,99834
2019-03-15T02:08:35.098Z,99822
2019-03-15T02:11:03.948Z,99826
2019-03-15T02:13:32.769Z,99835
2019-03-15T02:16:01.607Z,99828
2019-03-15T02:18:30.443Z,99824
2019-03-15T02:20:59.294Z,99822
2019-03-15T02:23:28.132Z,99806
2019-03-15T02:25:56.981Z,99818
2019-03-15T02:28:25.809Z,99810
2019-03-15T02:30:54.659Z,99824
2019-03-15T02:33:23.489Z,99820
2019-03-15T02:35:52.319Z,99817
2019-03-15T02:38:21.150Z,99813
2019-03-15T02:40:49.986Z,99810
2019-03-15T02:43:19.190Z,99813
2019-03-15T02:45:47.675Z,99808
2019-03-15T02:48:16.496Z,99806
2019-03-15T02:50:45.440Z,99803
2019-03-15T02:53:14.202Z,99806
2019-03-15T02:55:43.042Z,99821
2019-03-15T02:58:11.878Z,99812
2019-03-15T03:00:41.165Z,99829
2019-03-15T03:03:09.524Z,99822
2019-03-15T03:05:38.362Z,99823
2019-03-15T03:08:07.182Z,99826
2019-03-15T03:10:36.045Z,99824
2019-03-15T03:13:05.609Z,99819
2019-03-15T03:15:34.453Z,99819
2019-03-15T03:18:03.296Z,99819
2019-03-15T03:20:32.115Z,99832
2019-03-15T03:23:01.723Z,99830
2019-03-15T03:25:30.555Z,99824
2019-03-15T03:28:00.591Z,99832
2019-03-15T03:30:28.980Z,99831
2019-03-15T03:32:57.821Z,99833
2019-03-15T03:35:26.647Z,99831
2019-03-15T03:37:55.480Z,99831
2019-03-15T03:40:25.059Z,99832
2019-03-15T03:42:53.955Z,99831
2019-03-15T03:45:23.486Z,99832
2019-03-15T03:47:51.604Z,99834
2019-03-15T03:50:20.439Z,99834
2019-03-15T03:52:49.279Z,99832
2019-03-15T03:55:18.163Z,99837
2019-03-15T03:57:46.959Z,99824
2019-03-15T04:00:15.794Z,99823
2019-03-15T04:02:44.637Z,99819
2019-03-15T04:05:13.471Z,99823
2019-03-15T04:07:42.296Z,99826
2019-03-15T04:10:11.117Z,99827
2019-03-15T04:12:39.995Z,99833
2019-03-15T04:15:08.792Z,99829
2019-03-15T04:17:37.620Z,99835
2019-03-15T04:20:07.199Z,99837
2019-03-15T04:22:36.023Z,99838
2019-03-15T04:25:07.232Z,99844
2019-03-15T04:27:33.720Z,99844
2019-03-15T04:30:02.577Z,99836
2019-03-15T04:32:31.416Z,99841
2019-03-15T04:35:00.466Z,99842
2019-03-15T04:37:29.109Z,99827
2019-03-15T04:39:57.964Z,99837
2019-03-15T04:42:26.826Z,99836
2019-03-15T04:44:55.706Z,99826
2019-03-15T04:47:24.546Z,99830
2019-03-15T04:49:53.399Z,99828
2019-03-15T04:52:22.239Z,99822
2019-03-15T04:54:51.078Z,99826
2019-03-15T04:57:19.915Z,99817
2019-03-15T04:59:49.497Z,99821
2019-03-15T05:02:18.339Z,99812
2019-03-15T05:04:47.187Z,99809
2019-03-15T05:07:16.026Z,99812
2019-03-15T05:09:44.857Z,99813
2019-03-15T05:12:14.443Z,99826
2019-03-15T05:14:43.289Z,99825
2019-03-15T05:17:12.123Z,99825
2019-03-15T05:19:40.963Z,99821
2019-03-15T05:22:09.807Z,99831
2019-03-15T05:24:38.655Z,99828
2019-03-15T05:27:07.495Z,99821
2019-03-15T05:29:36.337Z,99825
2019-03-15T05:32:05.181Z,99813
2019-03-15T05:34:34.779Z,99818
2019-03-15T05:37:03.614Z,99805
2019-03-15T05:39:32.455Z,99812
2019-03-15T05:42:01.308Z,99806
2019-03-15T05:44:30.166Z,99806
2019-03-15T05:46:59.016Z,99817
2019-03-15T05:49:27.863Z,99812
2019-03-15T05:51:56.716Z,99812
2019-03-15T05:54:25.567Z,99818
2019-03-15T05:56:54.423Z,99805
2019-03-15T05:59:23.306Z,99807
2019-03-15T06:01:52.115Z,99825
2019-03-15T06:04:20.959Z,99796
2019-03-15T06:06:50.551Z,99796
2019-03-15T06:09:19.419Z,99794
2019-03-15T06:11:48.279Z,99787
2019-03-15T06:14:17.129Z,99791
2019-03-15T06:16:45.970Z,99796
2019-03-15T06:19:14.802Z,99793
2019-03-15T06:21:43.637Z,99795
2019-03-15T06:24:12.502Z,99788
2019-03-15T06:26:42.089Z,99793
2019-03-15T06:29:10.943Z,99787
2019-03-15T06:31:39.801Z,99798
2019-03-15T06:34:08.636Z,99802
2019-03-15T06:36:37.475Z,99797
2019-03-15T06:39:06.327Z,99793
2019-03-15T06:41:35.212Z,99790
2019-03-15T06:44:04.051Z,99785
2019-03-15T06:46:32.890Z,99780
2019-03-15T06:49:01.719Z,99782
2019-03-15T06:51:30.565Z,99777
2019-03-15T06:54:10.809Z,99779
2019-03-15T06:56:28.254Z,99765
2019-03-15T06:58:57.103Z,99771
2019-03-15T07:01:25.957Z,99770
2019-03-15T07:03:55.663Z,99778
2019-03-15T07:06:24.431Z,99769
2019-03-15T07:08:53.275Z,99778
2019-03-15T07:11:22.122Z,99765
2019-03-15T07:13:51.712Z,99764
2019-03-15T07:16:20.587Z,99759
2019-03-15T07:18:49.401Z,99758
2019-03-15T07:21:18.293Z,99764
2019-03-15T07:23:47.095Z,99773
2019-03-15T07:26:15.971Z,99771
2019-03-15T07:28:44.771Z,99764
2019-03-15T07:31:13.618Z,99756
2019-03-15T07:33:42.473Z,99758
2019-03-15T07:36:11.328Z,99745
2019-03-15T07:38:40.167Z,99745
2019-03-15T07:41:09.010Z,99744
2019-03-15T07:43:37.899Z,99745
2019-03-15T07:46:06.755Z,99745
2019-03-15T07:48:35.625Z,99742
2019-03-15T07:51:04.467Z,99738
2019-03-15T07:53:35.424Z,99735
2019-03-15T07:56:02.897Z,99729
2019-03-15T07:58:31.739Z,99728
2019-03-15T08:01:00.576Z,99727
2019-03-15T08:03:29.427Z,99719
2019-03-15T08:05:58.291Z,99725
2019-03-15T08:08:27.146Z,99719
2019-03-15T08:10:55.995Z,99716
2019-03-15T08:13:24.844Z,99709
2019-03-15T08:15:53.711Z,99723
2019-03-15T08:18:22.545Z,99708
2019-03-15T08:20:51.404Z,99714
2019-03-15T08:23:20.248Z,99705
2019-03-15T08:25:50.413Z,99709
2019-03-15T08:28:17.949Z,99708
2019-03-15T08:30:46.790Z,99715
2019-03-15T08:33:15.629Z,99705
2019-03-15T08:35:44.464Z,99703
2019-03-15T08:38:13.311Z,99701
2019-03-15T08:40:42.159Z,99695
2019-03-15T08:43:11.002Z,99673
2019-03-15T08:45:39.846Z,99680
2019-03-15T08:48:08.711Z,99684
2019-03-15T08:50:37.623Z,99691
2019-03-15T08:53:06.424Z,99694
2019-03-15T08:55:35.278Z,99703
2019-03-15T08:58:13.772Z,99690
2019-03-15T09:00:32.989Z,99684
2019-03-15T09:03:01.824Z,99682
2019-03-15T09:05:30.683Z,99677
2019-03-15T09:07:59.514Z,99696
2019-03-15T09:10:28.360Z,99681
2019-03-15T09:12:57.202Z,99682
2019-03-15T09:15:26.042Z,99674
2019-03-15T09:17:54.897Z,99681
2019-03-15T09:20:23.775Z,99672
2019-03-15T09:22:52.590Z,99682
2019-03-15T09:25:22.172Z,99682
2019-03-15T09:27:51.021Z,99665
2019-03-15T09:30:24.108Z,99666
2019-03-15T09:32:48.697Z,99669
2019-03-15T09:35:17.583Z,99666
2019-03-15T09:37:47.906Z,99668
2019-03-15T09:40:15.999Z,99674
2019-03-15T09:42:44.845Z,99667
2019-03-15T09:45:15.335Z,99665
2019-03-15T09:47:44.161Z,99671
2019-03-15T09:50:22.868Z,99661
2019-03-15T09:52:41.847Z,99663
2019-03-15T09:55:10.699Z,99665
2019-03-15T09:57:43.239Z,99670
2019-03-15T10:02:55.643Z,99677
2019-03-15T10:05:21.306Z,99668
2019-03-15T10:07:50.161Z,99664
2019-03-15T10:10:19.386Z,99668
2019-03-15T10:12:47.836Z,99667
2019-03-15T10:15:16.691Z,99673
2019-03-15T10:17:46.293Z,99668
2019-03-15T10:20:16.060Z,99655
2019-03-15T10:22:45.033Z,99675
2019-03-15T10:25:13.879Z,99662
2019-03-15T10:27:42.706Z,99662
2019-03-15T10:30:12.399Z,99658
2019-03-15T10:32:41.248Z,99665
2019-03-15T10:35:10.077Z,99651
2019-03-15T10:37:38.923Z,99663
2019-03-15T10:40:07.809Z,99661
2019-03-15T10:42:36.609Z,99656
2019-03-15T10:45:05.482Z,99648
2019-03-15T10:47:34.327Z,99676
2019-03-15T10:50:03.185Z,99674
2019-03-15T10:52:32.030Z,99673
2019-03-15T10:55:00.861Z,99665
2019-03-15T10:57:29.687Z,99673
2019-03-15T10:59:59.288Z,99677
2019-03-15T11:02:28.115Z,99675
2019-03-15T11:04:56.952Z,99678
2019-03-15T11:07:25.813Z,99679
2019-03-15T11:09:54.657Z,99687
2019-03-15T11:12:24.241Z,99678
2019-03-15T11:14:53.674Z,99689
2019-03-15T11:17:22.509Z,99680
2019-03-15T11:19:51.345Z,99687
2019-03-15T11:22:20.189Z,99697
2019-03-15T11:24:49.028Z,99685
2019-03-15T11:27:17.865Z,99686
2019-03-15T11:29:46.704Z,99687
2019-03-15T11:32:16.277Z,99691
2019-03-15T11:34:45.111Z,99687
2019-03-15T11:37:13.958Z,99704
2019-03-15T11:39:42.796Z,99696
2019-03-15T11:42:14.825Z,99685
2019-03-15T11:44:40.513Z,99696
2019-03-15T11:47:09.415Z,99684
2019-03-15T11:49:38.231Z,99694
2019-03-15T11:52:07.819Z,99694
2019-03-15T11:54:36.674Z,99686
2019-03-15T11:57:05.529Z,99690
2019-03-15T11:59:36.364Z,99702
2019-03-15T12:02:04.706Z,99702
2019-03-15T12:04:33.563Z,99702
2019-03-15T12:07:02.412Z,99708
2019-03-15T12:09:31.257Z,99701
2019-03-15T12:12:00.086Z,99706
2019-03-15T12:14:40.477Z,99705
2019-03-15T12:16:58.517Z,99706
2019-03-15T12:19:27.356Z,99706
2019-03-15T12:22:06.174Z,99698
2019-03-15T12:24:25.629Z,99700
2019-03-15T12:26:54.485Z,99696
2019-03-15T12:29:23.329Z,99696
2019-03-15T12:31:52.163Z,99701
2019-03-15T12:34:21.023Z,99699
2019-03-15T12:36:50.586Z,99702
2019-03-15T12:39:19.421Z,99706
2019-03-15T12:41:48.271Z,99713
2019-03-15T12:44:17.129Z,99709
2019-03-15T12:46:45.973Z,99710
2019-03-15T12:49:14.817Z,99715
2019-03-15T12:51:43.653Z,99704
2019-03-15T12:54:12.488Z,99696
2019-03-15T12:56:53.217Z,99696
2019-03-15T12:59:10.960Z,99706
2019-03-15T13:01:39.770Z,99699
2019-03-15T13:04:08.609Z,99709
2019-03-15T13:06:37.453Z,99715
2019-03-15T13:09:06.293Z,99722
2019-03-15T13:11:35.141Z,99712
2019-03-15T13:14:03.980Z,99716
2019-03-15T13:16:32.856Z,99719
2019-03-15T13:19:01.727Z,99720
2019-03-15T13:21:30.561Z,99726
2019-03-15T13:23:59.408Z,99717
2019-03-15T13:26:29.114Z,99731
2019-03-15T13:28:57.111Z,99721
2019-03-15T13:31:25.943Z,99732
2019-03-15T13:33:54.777Z,99733
2019-03-15T13:36:23.634Z,99740
2019-03-15T13:38:52.468Z,99735
2019-03-15T13:41:22.051Z,99734
2019-03-15T13:43:50.900Z,99739
2019-03-15T13:46:19.743Z,99735
2019-03-15T13:48:48.623Z,99749
2019-03-15T13:51:17.421Z,99749
2019-03-15T13:53:47.007Z,99748
2019-03-15T13:56:15.895Z,99751
2019-03-15T13:58:56.765Z,99755
2019-03-15T14:01:14.288Z,99760
2019-03-15T14:03:43.141Z,99751
2019-03-15T14:06:12.022Z,99760
2019-03-15T14:08:40.881Z,99762
2019-03-15T14:11:09.735Z,99762
2019-03-15T14:13:38.587Z,99754
2019-03-15T14:16:07.427Z,99756
2019-03-15T14:18:36.274Z,99764
2019-03-15T14:21:05.128Z,99769
2019-03-15T14:23:33.983Z,99766
2019-03-15T14:26:02.827Z,99768
2019-03-15T14:28:31.687Z,99769
2019-03-15T14:31:00.539Z,99774
2019-03-15T14:33:29.382Z,99743
2019-03-15T14:35:58.254Z,99752
2019-03-15T14:38:27.348Z,99762
2019-03-15T14:40:56.064Z,99761
2019-03-15T14:43:25.526Z,99754
2019-03-15T14:45:54.639Z,99763
2019-03-15T14:48:23.205Z,99757
2019-03-15T14:50:52.037Z,99771
2019-03-15T14:53:20.917Z,99775
2019-03-15T14:55:50.499Z,99771
2019-03-15T14:58:19.335Z,99775
2019-03-15T15:00:48.177Z,99777
2019-03-15T15:03:17.022Z,99771
2019-03-15T15:05:47.287Z,99774
2019-03-15T15:08:15.450Z,99761
2019-03-15T15:10:44.306Z,99774
2019-03-15T15:13:13.180Z,99766
2019-03-15T15:15:42.027Z,99771
2019-03-15T15:18:10.885Z,99767
2019-03-15T15:20:39.743Z,99778
2019-03-15T15:23:08.580Z,99770
2019-03-15T15:25:37.425Z,99775
2019-03-15T15:28:06.284Z,99777
2019-03-15T15:30:35.171Z,99763
2019-03-15T15:33:03.987Z,99762
2019-03-15T15:35:32.827Z,99770
2019-03-15T15:38:02.755Z,99761
2019-03-15T15:40:31.573Z,99765
2019-03-15T15:43:01.148Z,99762
2019-03-15T15:45:30.127Z,99751
2019-03-15T15:47:58.829Z,99767
2019-03-15T15:50:27.673Z,99763
2019-03-15T15:52:56.540Z,99769
2019-03-15T15:55:25.382Z,99771
2019-03-15T15:57:54.233Z,99777
2019-03-15T16:00:23.078Z,99788
2019-03-15T16:02:52.023Z,99786
2019-03-15T16:05:20.783Z,99778
2019-03-15T16:07:49.632Z,99779
2019-03-15T16:10:18.696Z,99784
2019-03-15T16:12:47.309Z,99779
2019-03-15T16:15:17.993Z,99788
2019-03-15T16:17:46.941Z,99798
2019-03-15T16:20:15.779Z,99799
2019-03-15T16:22:44.627Z,99805
2019-03-15T16:25:14.219Z,99800
2019-03-15T16:27:43.055Z,99791
2019-03-15T16:30:15.727Z,99810
2019-03-15T16:32:44.566Z,99806
2019-03-15T16:35:13.404Z,99819
2019-03-15T16:37:42.263Z,99799
2019-03-15T16:40:11.699Z,99807
2019-03-15T16:42:40.544Z,99799
2019-03-15T16:45:10.330Z,99800
2019-03-15T16:47:39.174Z,99800
2019-03-15T16:50:08.773Z,99808
2019-03-15T16:52:37.611Z,99807
2019-03-15T16:55:06.452Z,99798
2019-03-15T16:57:36.034Z,99811
2019-03-15T17:00:04.903Z,99807
2019-03-15T17:02:33.770Z,99807
2019-03-15T17:05:02.629Z,99823
2019-03-15T17:07:32.240Z,99820
2019-03-15T17:10:01.068Z,99822
2019-03-15T17:12:29.899Z,99828
2019-03-15T17:14:58.739Z,99834
2019-03-15T17:17:27.635Z,99825
2019-03-15T17:19:56.454Z,99821
2019-03-15T17:22:25.328Z,99832
2019-03-15T17:24:54.317Z,99824
2019-03-15T17:27:23.072Z,99826
2019-03-15T17:29:51.923Z,99830
2019-03-15T17:32:20.774Z,99832
2019-03-15T17:34:49.621Z,99843
2019-03-15T17:37:19.203Z,99831
2019-03-15T17:39:48.164Z,99840
2019-03-15T17:42:16.892Z,99842
2019-03-15T17:44:47.436Z,99853
2019-03-15T17:47:14.582Z,99841
2019-03-15T17:49:44.189Z,99835
2019-03-15T17:52:13.037Z,99837
2019-03-15T17:54:41.959Z,99829
2019-03-15T17:57:10.999Z,99839
2019-03-15T17:59:39.760Z,99836
2019-03-15T18:02:08.631Z,99825
2019-03-15T18:04:37.518Z,99848
2019-03-15T18:07:06.366Z,99836
2019-03-15T18:09:35.159Z,99834
2019-03-15T18:12:04.010Z,99834
2019-03-15T18:14:32.876Z,99841
2019-03-15T18:17:01.713Z,99842
2019-03-15T18:19:30.559Z,99843
2019-03-15T18:21:59.395Z,99853
2019-03-15T18:24:28.234Z,99842
2019-03-15T18:26:57.077Z,99851
2019-03-15T18:29:26.791Z,99846
2019-03-15T18:31:55.514Z,99846
2019-03-15T18:34:24.352Z,99864
2019-03-15T18:36:53.191Z,99850
2019-03-15T18:39:22.042Z,99862
2019-03-15T18:41:50.899Z,99861
2019-03-15T18:44:19.921Z,99865
2019-03-15T18:46:48.686Z,99859
2019-03-15T18:49:18.714Z,99874
2019-03-15T18:51:46.393Z,99867
2019-03-15T18:54:17.634Z,99856
2019-03-15T18:56:44.108Z,99857
2019-03-15T18:59:13.844Z,99847
2019-03-15T19:01:42.563Z,99854
2019-03-15T19:04:11.399Z,99854
2019-03-15T19:06:40.986Z,99859
2019-03-15T19:09:09.822Z,99866
2019-03-15T19:11:38.686Z,99859
2019-03-15T19:14:08.275Z,99864
2019-03-15T19:16:37.151Z,99863
2019-03-15T19:19:05.972Z,99881
2019-03-15T19:21:34.912Z,99871
2019-03-15T19:24:03.687Z,99870
2019-03-15T19:26:32.536Z,99868
2019-03-15T19:29:01.368Z,99876
2019-03-15T19:31:30.225Z,99877
2019-03-15T19:34:00.022Z,99872
2019-03-15T19:36:28.882Z,99875
2019-03-15T19:38:57.722Z,99875
2019-03-15T19:41:26.610Z,99874
2019-03-15T19:43:55.416Z,99879
2019-03-15T19:46:24.286Z,99889
2019-03-15T19:48:53.882Z,99886
2019-03-15T19:51:22.738Z,99888
2019-03-15T19:53:51.628Z,99887
2019-03-15T19:56:20.498Z,99895
2019-03-15T19:58:49.339Z,99894
2019-03-15T20:01:18.198Z,99898
2019-03-15T20:03:47.061Z,99895
2019-03-15T20:06:15.898Z,99899
2019-03-15T20:08:45.333Z,99901
2019-03-15T20:11:14.238Z,99905
2019-03-15T20:13:43.097Z,99910
2019-03-15T20:16:12.706Z,99907
2019-03-15T20:18:42.332Z,99918
2019-03-15T20:21:11.159Z,99917
2019-03-15T20:23:40.010Z,99916
2019-03-15T20:26:08.891Z,99915
2019-03-15T20:28:38.477Z,99915
2019-03-15T20:31:07.329Z,99917
2019-03-15T20:33:36.211Z,99907
2019-03-15T20:36:05.042Z,99912
2019-03-15T20:38:33.898Z,99906
2019-03-15T20:41:02.798Z,99913
2019-03-15T20:43:31.612Z,99928
2019-03-15T20:46:00.469Z,99917
2019-03-15T20:48:29.307Z,99920
2019-03-15T20:50:58.154Z,99944
2019-03-15T20:53:26.987Z,99931
2019-03-15T20:55:56.690Z,99931
2019-03-15T20:58:26.177Z,99939
2019-03-15T21:00:55.862Z,99937
2019-03-15T21:03:24.663Z,99947
2019-03-15T21:05:53.529Z,99960
2019-03-15T21:08:22.375Z,99954
2019-03-15T21:10:51.726Z,99952
2019-03-15T21:13:20.072Z,99946
2019-03-15T21:15:48.920Z,99959
2019-03-15T21:18:17.790Z,99956
2019-03-15T21:20:46.623Z,99980
2019-03-15T21:23:15.507Z,99975
2019-03-15T21:25:44.363Z,99966
2019-03-15T21:28:13.170Z,99978
2019-03-15T21:30:48.460Z,99972
2019-03-15T21:33:11.607Z,99974
2019-03-15T21:35:40.458Z,99977
2019-03-15T21:38:10.048Z,99984
2019-03-15T21:40:38.912Z,99990
2019-03-15T21:43:07.763Z,99998
2019-03-15T21:45:36.614Z,100007
2019-03-15T21:48:05.446Z,99999
2019-03-15T21:50:34.299Z,99996
2019-03-15T21:53:03.883Z,99996
2019-03-15T21:55:32.729Z,100000
2019-03-15T21:58:01.571Z,99994
2019-03-15T22:00:30.435Z,99999
2019-03-15T22:02:59.283Z,100005
2019-03-15T22:05:28.141Z,100000
2019-03-15T22:07:57.025Z,100006
2019-03-15T22:10:25.836Z,100002
2019-03-15T22:12:55.475Z,100016
2019-03-15T22:15:24.290Z,100003
2019-03-15T22:17:53.240Z,100006
2019-03-15T22:20:21.990Z,100014
2019-03-15T22:22:50.836Z,100010
2019-03-15T22:25:19.667Z,100022
2019-03-15T22:27:50.235Z,100024
2019-03-15T22:30:17.449Z,100015
2019-03-15T22:32:46.269Z,100023
2019-03-15T22:35:15.864Z,100017
2019-03-15T22:37:44.719Z,100021
2019-03-15T22:40:13.578Z,100025
2019-03-15T22:42:42.428Z,100022
2019-03-15T22:45:11.285Z,100033
2019-03-15T22:47:40.140Z,100032
2019-03-15T22:50:09.805Z,100032
2019-03-15T22:52:38.657Z,100052
2019-03-15T22:55:07.520Z,100042
2019-03-15T22:57:37.121Z,100054
2019-03-15T23:00:13.276Z,100051
2019-03-15T23:02:42.897Z,100055
2019-03-15T23:05:11.704Z,100060
2019-03-15T23:07:40.568Z,100057
2019-03-15T23:10:10.146Z,100050
2019-03-15T23:12:39.737Z,100060
2019-03-15T23:15:08.617Z,100059
2019-03-15T23:17:37.462Z,100054
2019-03-15T23:20:07.106Z,100065
2019-03-15T23:22:35.956Z,100061
2019-03-15T23:25:05.532Z,100062
2019-03-15T23:27:34.374Z,100062
2019-03-15T23:30:03.231Z,100060
2019-03-15T23:32:32.096Z,100056
2019-03-15T23:35:00.972Z,100073
2019-03-15T23:37:29.809Z,100067
2019-03-15T23:39:58.657Z,100070
2019-03-15T23:42:28.286Z,100082
2019-03-15T23:44:57.105Z,100084
2019-03-15T23:47:25.954Z,100081
2019-03-15T23:49:54.805Z,100081
2019-03-15T23:52:23.654Z,100079
2019-03-15T23:54:52.518Z,100079
2019-03-15T23:57:21.359Z,100084
2019-03-15T23:59:50.213Z,100086
